createdAt,value
2019-04-13T00:02:38.572Z,7.00
2019-04-13T00:05:22.824Z,6.57
2019-04-13T00:07:50.272Z,6.73
2019-04-13T00:10:17.744Z,6.80
2019-04-13T00:12:45.155Z,7.67
2019-04-13T00:15:13.328Z,6.43
2019-04-13T00:17:40.735Z,6.30
2019-04-13T00:20:08.233Z,7.07
2019-04-13T00:22:35.646Z,7.27
2019-04-13T00:25:03.102Z,6.33
2019-04-13T00:27:30.572Z,6.50
2019-04-13T00:29:57.993Z,7.13
2019-04-13T00:32:25.448Z,7.57
2019-04-13T00:34:53.856Z,6.60
2019-04-13T00:37:21.308Z,6.57
2019-04-13T00:39:48.767Z,7.37
2019-04-13T00:42:16.166Z,7.20
2019-04-13T00:44:43.655Z,6.97
2019-04-13T00:47:11.107Z,7.60
2019-04-13T00:49:38.574Z,7.13
2019-04-13T00:52:06.085Z,6.93
2019-04-13T00:54:33.520Z,7.47
2019-04-13T00:57:00.946Z,7.17
2019-04-13T00:59:28.444Z,7.55
2019-04-13T01:01:55.892Z,7.60
2019-04-13T01:04:23.320Z,8.50
2019-04-13T01:06:50.737Z,7.22
2019-04-13T01:09:18.170Z,7.40
2019-04-13T01:11:45.578Z,7.23
2019-04-13T01:14:13.398Z,7.22
2019-04-13T01:16:40.978Z,6.80
2019-04-13T01:19:08.455Z,7.72
2019-04-13T01:21:37.004Z,7.27
2019-04-13T01:24:05.565Z,7.55
2019-04-13T01:26:32.962Z,7.40
2019-04-13T01:29:00.455Z,7.50
2019-04-13T01:31:27.906Z,7.50
2019-04-13T01:33:55.308Z,7.07
2019-04-13T01:36:22.772Z,7.47
2019-04-13T01:38:50.244Z,6.85
2019-04-13T01:41:17.647Z,6.33
2019-04-13T01:43:45.049Z,7.07
2019-04-13T01:46:12.478Z,6.53
2019-04-13T01:48:39.972Z,4.97
2019-04-13T01:51:07.406Z,6.77
2019-04-13T01:53:34.842Z,7.37
2019-04-13T01:56:03.426Z,7.10
2019-04-13T01:58:30.864Z,6.43
2019-04-13T02:00:58.317Z,6.93
2019-04-13T02:03:25.775Z,7.20
2019-04-13T02:05:55.676Z,6.95
2019-04-13T02:08:31.625Z,6.37
2019-04-13T02:11:14.650Z,6.23
2019-04-13T02:13:42.040Z,6.50
2019-04-13T02:16:09.518Z,6.07
2019-04-13T02:18:36.971Z,6.27
2019-04-13T02:21:04.627Z,7.20
2019-04-13T02:23:32.076Z,6.47
2019-04-13T02:25:59.550Z,6.53
2019-04-13T02:28:27.040Z,6.07
2019-04-13T02:30:54.512Z,6.97
2019-04-13T02:33:22.176Z,6.43
2019-04-13T02:35:49.491Z,6.70
2019-04-13T02:38:16.939Z,6.53
2019-04-13T02:40:44.335Z,6.57
2019-04-13T02:43:11.790Z,6.17
2019-04-13T02:45:39.207Z,7.17
2019-04-13T02:48:06.631Z,6.37
2019-04-13T02:50:34.032Z,6.43
2019-04-13T02:53:01.507Z,6.30
2019-04-13T02:55:28.942Z,6.60
2019-04-13T02:57:56.399Z,6.57
2019-04-13T03:00:23.853Z,5.93
2019-04-13T03:02:51.272Z,7.00
2019-04-13T03:05:18.683Z,6.40
2019-04-13T03:07:46.130Z,6.23
2019-04-13T03:10:13.820Z,6.65
2019-04-13T03:12:41.227Z,5.53
2019-04-13T03:15:08.739Z,5.00
2019-04-13T03:17:52.985Z,2.90
2019-04-13T03:20:20.942Z,5.28
2019-04-13T03:22:48.411Z,4.23
2019-04-13T03:25:15.820Z,5.23
2019-04-13T03:27:43.883Z,5.53
2019-04-13T03:30:11.333Z,4.80
2019-04-13T03:32:38.828Z,6.17
2019-04-13T03:35:06.286Z,5.50
2019-04-13T03:37:33.743Z,6.27
2019-04-13T03:40:01.189Z,5.37
2019-04-13T03:42:28.603Z,5.40
2019-04-13T03:44:56.005Z,5.70
2019-04-13T03:47:23.423Z,6.17
2019-04-13T03:49:50.824Z,5.23
2019-04-13T03:52:18.286Z,5.20
2019-04-13T03:54:45.771Z,4.62
2019-04-13T03:57:13.840Z,4.75
2019-04-13T03:59:41.311Z,5.17
2019-04-13T04:02:08.793Z,4.87
2019-04-13T04:04:36.230Z,5.83
2019-04-13T04:07:03.704Z,5.97
2019-04-13T04:09:31.177Z,5.50
2019-04-13T04:11:58.575Z,5.73
2019-04-13T04:14:25.978Z,5.53
2019-04-13T04:16:53.423Z,5.60
2019-04-13T04:19:20.849Z,6.00
2019-04-13T04:21:48.324Z,6.10
2019-04-13T04:24:15.731Z,6.30
2019-04-13T04:26:43.989Z,6.50
2019-04-13T04:29:11.397Z,6.37
2019-04-13T04:31:38.845Z,6.53
2019-04-13T04:34:06.298Z,7.20
2019-04-13T04:36:33.763Z,6.28
2019-04-13T04:39:01.156Z,6.80
2019-04-13T04:41:28.615Z,6.62
2019-04-13T04:43:56.058Z,6.73
2019-04-13T04:46:23.544Z,6.77
2019-04-13T04:48:51.001Z,6.37
2019-04-13T04:51:18.398Z,6.60
2019-04-13T04:53:45.885Z,6.50
2019-04-13T04:56:14.344Z,6.06
2019-04-13T04:58:41.768Z,6.73
2019-04-13T05:01:09.241Z,6.78
2019-04-13T05:03:36.670Z,7.13
2019-04-13T05:06:04.156Z,6.57
2019-04-13T05:08:33.699Z,7.00
2019-04-13T05:11:01.285Z,7.68
2019-04-13T05:13:28.722Z,7.43
2019-04-13T05:15:56.184Z,6.93
2019-04-13T05:18:23.625Z,7.40
2019-04-13T05:20:51.084Z,7.43
2019-04-13T05:23:18.550Z,7.87
2019-04-13T05:25:45.981Z,7.63
2019-04-13T05:28:13.418Z,7.80
2019-04-13T05:30:40.906Z,8.00
2019-04-13T05:33:08.366Z,7.70
2019-04-13T05:35:35.778Z,7.67
2019-04-13T05:38:03.210Z,7.37
2019-04-13T05:40:30.616Z,7.47
2019-04-13T05:42:58.050Z,5.90
2019-04-13T05:45:25.455Z,7.23
2019-04-13T05:47:52.871Z,6.07
2019-04-13T05:50:20.293Z,7.07
2019-04-13T05:52:47.707Z,7.43
2019-04-13T05:55:15.487Z,7.00
2019-04-13T05:57:42.891Z,8.03
2019-04-13T06:00:10.326Z,8.23
2019-04-13T06:02:37.743Z,8.30
2019-04-13T06:05:07.475Z,8.17
2019-04-13T06:07:32.632Z,7.18
2019-04-13T06:10:00.053Z,8.47
2019-04-13T06:12:27.486Z,8.05
2019-04-13T06:14:54.980Z,8.23
2019-04-13T06:17:22.389Z,9.77
2019-04-13T06:19:49.864Z,7.90
2019-04-13T06:22:17.302Z,7.95
2019-04-13T06:24:44.726Z,11.73
2019-04-13T06:27:12.195Z,10.75
2019-04-13T06:29:39.592Z,8.33
2019-04-13T06:32:12.363Z,7.53
2019-04-13T06:34:40.560Z,8.97
2019-04-13T06:37:12.357Z,9.70
2019-04-13T06:39:35.779Z,6.50
2019-04-13T06:42:03.281Z,9.50
2019-04-13T06:44:35.961Z,9.83
2019-04-13T06:46:58.133Z,9.38
2019-04-13T06:49:25.600Z,8.57
2019-04-13T06:51:53.031Z,8.00
2019-04-13T06:54:21.271Z,3.37
2019-04-13T06:56:48.760Z,6.57
2019-04-13T06:59:16.886Z,7.20
2019-04-13T07:01:44.981Z,7.60
2019-04-13T07:04:12.371Z,5.65
2019-04-13T07:06:47.598Z,7.77
2019-04-13T07:09:12.774Z,7.10
2019-04-13T07:11:56.386Z,7.90
2019-04-13T07:14:23.458Z,5.97
2019-04-13T07:17:00.510Z,6.97
2019-04-13T07:19:27.938Z,7.53
2019-04-13T07:21:55.370Z,5.80
2019-04-13T07:24:22.797Z,6.78
2019-04-13T07:26:50.226Z,2.80
2019-04-13T07:29:17.677Z,4.43
2019-04-13T07:31:45.130Z,6.60
2019-04-13T07:34:12.576Z,7.97
2019-04-13T07:36:42.139Z,6.90
2019-04-13T07:39:07.438Z,8.10
2019-04-13T07:41:34.865Z,4.53
2019-04-13T07:44:02.310Z,9.02
2019-04-13T07:46:49.562Z,5.90
2019-04-13T07:49:33.500Z,3.97
2019-04-13T07:52:00.903Z,4.67
2019-04-13T07:54:28.334Z,4.57
2019-04-13T07:56:55.773Z,6.30
2019-04-13T07:59:23.233Z,7.93
2019-04-13T08:01:56.643Z,8.10
2019-04-13T08:04:18.110Z,8.98
2019-04-13T08:06:45.541Z,9.97
2019-04-13T08:09:12.961Z,7.93
2019-04-13T08:11:40.390Z,9.67
2019-04-13T08:14:08.172Z,10.70
2019-04-13T08:16:35.620Z,4.65
2019-04-13T08:19:03.035Z,9.83
2019-04-13T08:21:33.101Z,10.47
2019-04-13T08:23:57.940Z,11.70
2019-04-13T08:26:25.441Z,11.07
2019-04-13T08:28:52.854Z,9.77
2019-04-13T08:31:22.448Z,10.87
2019-04-13T08:33:48.621Z,13.80
2019-04-13T08:36:16.177Z,12.70
2019-04-13T08:38:57.833Z,11.68
2019-04-13T08:41:12.003Z,6.37
2019-04-13T08:43:38.479Z,10.50
2019-04-13T08:46:05.920Z,7.90
2019-04-13T08:48:33.329Z,7.83
2019-04-13T08:51:00.783Z,4.18
2019-04-13T08:53:28.213Z,5.83
2019-04-13T08:55:55.651Z,4.87
2019-04-13T08:58:23.889Z,3.75
2019-04-13T09:00:52.078Z,7.37
2019-04-13T09:03:19.551Z,9.57
2019-04-13T09:05:46.997Z,8.50
2019-04-13T09:08:28.542Z,5.60
2019-04-13T09:10:41.860Z,7.60
2019-04-13T09:13:09.282Z,5.83
2019-04-13T09:15:37.350Z,8.35
2019-04-13T09:18:09.785Z,6.17
2019-04-13T09:20:39.984Z,9.25
2019-04-13T09:23:06.815Z,6.80
2019-04-13T09:25:33.965Z,4.67
2019-04-13T09:28:01.422Z,11.23
2019-04-13T09:30:28.859Z,9.18
2019-04-13T09:32:56.317Z,10.83
2019-04-13T09:35:25.502Z,10.90
2019-04-13T09:37:51.245Z,8.87
2019-04-13T09:40:18.726Z,8.85
2019-04-13T09:42:47.194Z,7.53
2019-04-13T09:45:13.622Z,6.53
2019-04-13T09:47:42.217Z,3.63
2019-04-13T09:50:08.549Z,3.20
2019-04-13T09:52:35.970Z,6.20
2019-04-13T09:55:03.418Z,6.20
2019-04-13T09:57:30.843Z,5.47
2019-04-13T09:59:58.281Z,7.13
2019-04-13T10:02:26.122Z,5.35
2019-04-13T10:04:53.165Z,2.87
2019-04-13T10:07:20.605Z,6.17
2019-04-13T10:09:48.035Z,6.70
2019-04-13T10:12:33.143Z,5.50
2019-04-13T10:15:04.969Z,7.50
2019-04-13T10:17:32.381Z,5.80
2019-04-13T10:19:59.804Z,6.00
2019-04-13T10:22:27.246Z,7.73
2019-04-13T10:24:54.670Z,3.33
2019-04-13T10:27:22.109Z,4.93
2019-04-13T10:29:50.304Z,6.50
2019-04-13T10:32:17.005Z,4.12
2019-04-13T10:34:44.481Z,5.90
2019-04-13T10:37:11.927Z,3.87
2019-04-13T10:39:39.355Z,6.27
2019-04-13T10:42:06.814Z,6.17
2019-04-13T10:44:34.214Z,7.37
2019-04-13T10:47:16.538Z,4.07
2019-04-13T10:49:45.885Z,7.07
2019-04-13T10:52:15.844Z,7.20
2019-04-13T10:54:43.285Z,7.13
2019-04-13T10:57:10.737Z,2.80
2019-04-13T10:59:38.153Z,3.87
2019-04-13T11:02:06.537Z,5.90
2019-04-13T11:04:33.964Z,6.47
2019-04-13T11:07:01.406Z,4.73
2019-04-13T11:09:29.643Z,7.30
2019-04-13T11:11:56.330Z,2.53
2019-04-13T11:14:23.750Z,7.50
2019-04-13T11:16:53.048Z,4.90
2019-04-13T11:19:19.301Z,3.60
2019-04-13T11:21:47.309Z,7.37
2019-04-13T11:24:14.203Z,6.70
2019-04-13T11:26:41.626Z,8.10
2019-04-13T11:29:11.254Z,5.07
2019-04-13T11:31:36.597Z,5.07
2019-04-13T11:34:04.012Z,2.22
2019-04-13T11:36:31.472Z,2.33
2019-04-13T11:39:02.191Z,4.40
2019-04-13T11:41:27.714Z,3.97
2019-04-13T11:44:00.742Z,3.72
2019-04-13T11:46:44.289Z,5.62
2019-04-13T11:49:11.684Z,4.70
2019-04-13T11:51:39.133Z,4.30
2019-04-13T11:54:06.613Z,4.33
2019-04-13T11:56:36.563Z,5.30
2019-04-13T11:59:01.504Z,4.82
2019-04-13T12:01:48.735Z,6.20
2019-04-13T12:04:18.671Z,5.13
2019-04-13T12:06:51.793Z,3.83
2019-04-13T12:09:49.261Z,4.90
2019-04-13T12:12:05.970Z,4.85
2019-04-13T12:14:35.331Z,6.60
2019-04-13T12:17:03.867Z,6.60
2019-04-13T12:19:31.328Z,4.20
2019-04-13T12:21:59.250Z,3.10
2019-04-13T12:24:26.714Z,4.03
2019-04-13T12:26:54.163Z,1.43
2019-04-13T12:29:21.613Z,3.93
2019-04-13T12:31:49.058Z,4.97
2019-04-13T12:34:16.513Z,5.40
2019-04-13T12:36:43.936Z,5.97
2019-04-13T12:39:11.382Z,5.80
2019-04-13T12:41:54.481Z,6.03
2019-04-13T12:44:21.926Z,5.73
2019-04-13T12:46:49.354Z,6.70
2019-04-13T12:49:16.801Z,6.03
2019-04-13T12:51:44.245Z,6.20
2019-04-13T12:54:11.660Z,5.57
2019-04-13T12:56:39.128Z,5.82
2019-04-13T12:59:06.592Z,5.10
2019-04-13T13:01:36.753Z,4.83
2019-04-13T13:04:05.414Z,5.40
2019-04-13T13:06:32.252Z,5.00
2019-04-13T13:09:01.452Z,4.50
2019-04-13T13:11:27.193Z,5.27
2019-04-13T13:13:54.640Z,4.80
2019-04-13T13:16:22.071Z,3.35
2019-04-13T13:18:49.517Z,5.27
2019-04-13T13:21:16.952Z,4.18
2019-04-13T13:23:44.463Z,5.33
2019-04-13T13:26:12.758Z,4.67
2019-04-13T13:28:40.975Z,5.10
2019-04-13T13:31:07.719Z,4.07
2019-04-13T13:33:35.193Z,3.00
2019-04-13T13:36:02.680Z,4.27
2019-04-13T13:38:30.125Z,4.22
2019-04-13T13:40:57.616Z,4.40
2019-04-13T13:43:25.104Z,4.33
2019-04-13T13:45:52.550Z,4.80
2019-04-13T13:48:20.000Z,4.50
2019-04-13T13:50:47.476Z,4.40
2019-04-13T13:53:14.890Z,4.10
2019-04-13T13:55:42.368Z,4.53
2019-04-13T13:58:13.249Z,4.40
2019-04-13T14:00:56.827Z,4.27
2019-04-13T14:03:24.815Z,4.37
2019-04-13T14:05:52.297Z,4.57
2019-04-13T14:08:19.731Z,4.18
2019-04-13T14:10:48.703Z,4.63
2019-04-13T14:13:16.613Z,4.67
2019-04-13T14:15:42.144Z,4.95
2019-04-13T14:18:09.591Z,4.57
2019-04-13T14:20:37.039Z,4.00
2019-04-13T14:23:04.515Z,4.27
2019-04-13T14:25:31.923Z,4.40
2019-04-13T14:27:59.398Z,4.57
2019-04-13T14:30:26.856Z,4.00
2019-04-13T14:32:54.313Z,4.67
2019-04-13T14:35:21.771Z,4.40
2019-04-13T14:37:51.238Z,1.57
2019-04-13T14:40:16.722Z,2.90
2019-04-13T14:42:45.449Z,3.50
2019-04-13T14:45:11.709Z,4.70
2019-04-13T14:47:39.165Z,3.93
2019-04-13T14:50:06.631Z,3.10
2019-04-13T14:52:34.105Z,3.70
2019-04-13T14:55:01.545Z,5.62
2019-04-13T14:57:28.973Z,4.03
2019-04-13T14:59:56.430Z,2.53
2019-04-13T15:02:23.855Z,3.23
2019-04-13T15:04:51.346Z,2.00
2019-04-13T15:07:19.518Z,4.43
2019-04-13T15:09:47.063Z,1.43
2019-04-13T15:12:14.490Z,4.75
2019-04-13T15:14:43.112Z,5.70
2019-04-13T15:17:10.779Z,4.50
2019-04-13T15:19:50.398Z,5.97
2019-04-13T15:22:05.588Z,6.65
2019-04-13T15:24:32.841Z,6.15
2019-04-13T15:26:59.300Z,6.73
2019-04-13T15:29:30.477Z,6.60
2019-04-13T15:31:55.246Z,5.47
2019-04-13T15:34:26.184Z,6.33
2019-04-13T15:36:49.100Z,6.70
2019-04-13T15:39:18.614Z,4.13
2019-04-13T15:41:55.334Z,5.13
2019-04-13T15:44:13.446Z,3.93
2019-04-13T15:46:39.916Z,2.97
2019-04-13T15:49:07.370Z,7.33
2019-04-13T15:51:34.793Z,3.87
2019-04-13T15:54:04.920Z,5.93
2019-04-13T15:56:29.778Z,6.43
2019-04-13T15:58:57.251Z,6.10
2019-04-13T16:01:25.892Z,5.90
2019-04-13T16:03:53.131Z,5.77
2019-04-13T16:06:19.657Z,7.77
2019-04-13T16:08:53.457Z,6.90
2019-04-13T16:11:46.301Z,7.27
2019-04-13T16:14:04.163Z,6.80
2019-04-13T16:16:31.848Z,6.00
2019-04-13T16:18:58.329Z,7.20
2019-04-13T16:21:25.849Z,7.70
2019-04-13T16:23:52.341Z,7.27
2019-04-13T16:26:19.844Z,5.93
2019-04-13T16:28:50.437Z,7.72
2019-04-13T16:31:20.416Z,6.77
2019-04-13T16:33:49.908Z,5.78
2019-04-13T16:36:17.898Z,4.95
2019-04-13T16:38:54.606Z,7.83
2019-04-13T16:41:13.084Z,6.90
2019-04-13T16:43:41.704Z,7.47
2019-04-13T16:46:09.463Z,7.37
2019-04-13T16:48:38.565Z,5.72
2019-04-13T16:51:24.626Z,7.70
2019-04-13T16:54:02.039Z,6.63
2019-04-13T16:56:39.535Z,4.97
2019-04-13T16:59:26.542Z,7.40
2019-04-13T17:01:54.952Z,7.57
2019-04-13T17:04:30.808Z,7.53
2019-04-13T17:06:59.086Z,7.70
2019-04-13T17:09:25.754Z,7.32
2019-04-13T17:11:53.189Z,7.60
2019-04-13T17:14:22.588Z,8.20
2019-04-13T17:16:50.470Z,7.30
2019-04-13T17:19:24.032Z,7.93
2019-04-13T17:21:50.734Z,8.47
2019-04-13T17:24:20.147Z,7.97
2019-04-13T17:27:03.038Z,9.03
2019-04-13T17:29:46.450Z,7.60
2019-04-13T17:32:14.283Z,9.30
2019-04-13T17:34:59.202Z,8.47
2019-04-13T17:37:27.645Z,9.60
2019-04-13T17:39:54.776Z,9.05
2019-04-13T17:42:41.534Z,9.57
2019-04-13T17:45:06.872Z,9.20
2019-04-13T17:47:35.118Z,8.97
2019-04-13T17:50:17.838Z,9.00
2019-04-13T17:53:01.995Z,9.63
2019-04-13T17:55:44.328Z,10.30
2019-04-13T17:58:12.476Z,7.97
2019-04-13T18:00:45.255Z,8.27
2019-04-13T18:03:15.625Z,9.27
2019-04-13T18:05:43.640Z,9.77
2019-04-13T18:08:36.719Z,8.48
2019-04-13T18:11:06.046Z,9.75
2019-04-13T18:13:46.687Z,9.53
2019-04-13T18:16:11.143Z,9.50
2019-04-13T18:18:37.542Z,10.57
2019-04-13T18:21:05.747Z,10.20
2019-04-13T18:23:32.258Z,10.23
2019-04-13T18:26:00.979Z,10.03
2019-04-13T18:28:27.315Z,10.23
2019-04-13T18:30:55.802Z,10.87
2019-04-13T18:33:22.448Z,10.80
2019-04-13T18:35:50.693Z,11.20
2019-04-13T18:38:18.195Z,11.90
2019-04-13T18:40:45.143Z,11.43
2019-04-13T18:43:17.502Z,11.23
2019-04-13T18:45:40.847Z,10.27
2019-04-13T18:48:07.870Z,10.70
2019-04-13T18:50:35.386Z,10.53
2019-04-13T18:53:05.804Z,10.87
2019-04-13T18:55:30.833Z,10.40
2019-04-13T18:57:57.312Z,9.87
2019-04-13T19:00:25.657Z,10.75
2019-04-13T19:02:52.241Z,10.37
2019-04-13T19:05:19.683Z,4.33
2019-04-13T19:07:47.130Z,9.82
2019-04-13T19:10:14.594Z,4.45
2019-04-13T19:12:42.020Z,4.90
2019-04-13T19:15:09.491Z,7.07
2019-04-13T19:17:37.240Z,8.23
2019-04-13T19:20:06.565Z,7.87
2019-04-13T19:22:34.048Z,7.20
2019-04-13T19:25:01.523Z,7.37
2019-04-13T19:27:28.999Z,7.30
2019-04-13T19:29:56.408Z,7.13
2019-04-13T19:32:23.853Z,7.90
2019-04-13T19:34:51.285Z,6.87
2019-04-13T19:37:18.746Z,7.80
2019-04-13T19:39:46.198Z,9.25
2019-04-13T19:42:13.699Z,9.43
2019-04-13T19:44:41.133Z,10.30
2019-04-13T19:47:08.644Z,9.80
2019-04-13T19:49:36.125Z,10.67
2019-04-13T19:52:03.566Z,9.80
2019-04-13T19:54:31.019Z,10.27
2019-04-13T19:56:58.454Z,10.93
2019-04-13T19:59:25.935Z,9.97
2019-04-13T20:01:53.398Z,11.93
2019-04-13T20:04:20.851Z,11.83
2019-04-13T20:06:48.323Z,11.93
2019-04-13T20:09:15.804Z,10.83
2019-04-13T20:11:43.255Z,12.33
2019-04-13T20:14:14.042Z,10.90
2019-04-13T20:16:38.393Z,12.70
2019-04-13T20:19:05.885Z,12.30
2019-04-13T20:21:33.371Z,11.67
2019-04-13T20:24:01.046Z,12.90
2019-04-13T20:26:29.358Z,11.37
2019-04-13T20:28:57.155Z,11.57
2019-04-13T20:31:24.751Z,11.60
2019-04-13T20:33:52.467Z,12.40
2019-04-13T20:36:22.249Z,11.03
2019-04-13T20:38:47.492Z,12.13
2019-04-13T20:41:15.114Z,12.55
2019-04-13T20:43:52.972Z,12.93
2019-04-13T20:46:10.340Z,12.93
2019-04-13T20:48:37.958Z,14.45
2019-04-13T20:51:06.086Z,13.50
2019-04-13T20:53:33.215Z,13.27
2019-04-13T20:56:01.133Z,13.20
2019-04-13T20:58:27.691Z,14.60
2019-04-13T21:00:55.223Z,13.83
2019-04-13T21:03:23.118Z,13.03
2019-04-13T21:05:51.291Z,12.75
2019-04-13T21:08:19.385Z,13.37
2019-04-13T21:10:46.401Z,14.47
2019-04-13T21:13:13.874Z,13.27
2019-04-13T21:15:42.080Z,17.20
2019-04-13T21:18:08.845Z,17.57
2019-04-13T21:20:36.308Z,15.37
2019-04-13T21:23:03.913Z,17.67
2019-04-13T21:25:31.614Z,18.53
2019-04-13T21:27:59.562Z,19.13
2019-04-13T21:30:27.292Z,18.70
2019-04-13T21:32:55.522Z,17.47
2019-04-13T21:35:23.087Z,18.90
2019-04-13T21:37:50.771Z,18.70
2019-04-13T21:40:17.062Z,17.52
2019-04-13T21:42:44.603Z,18.23
2019-04-13T21:45:12.479Z,16.30
2019-04-13T21:47:40.462Z,16.77
2019-04-13T21:50:12.982Z,15.80
2019-04-13T21:52:43.685Z,15.93
2019-04-13T21:55:11.537Z,14.70
2019-04-13T21:57:39.354Z,15.13
2019-04-13T22:00:07.522Z,14.63
2019-04-13T22:02:35.403Z,15.53
2019-04-13T22:05:03.104Z,14.33
2019-04-13T22:07:30.935Z,13.80
2019-04-13T22:09:58.562Z,13.80
2019-04-13T22:12:24.999Z,14.00
2019-04-13T22:14:58.702Z,14.47
2019-04-13T22:17:20.427Z,14.73
2019-04-13T22:19:48.391Z,14.53
2019-04-13T22:22:16.440Z,14.83
2019-04-13T22:24:44.110Z,15.10
2019-04-13T22:27:11.781Z,14.13
2019-04-13T22:29:40.597Z,14.27
2019-04-13T22:32:12.082Z,14.30
2019-04-13T22:34:42.507Z,13.63
2019-04-13T22:37:10.418Z,13.53
2019-04-13T22:39:38.006Z,13.88
2019-04-13T22:42:05.828Z,14.83
2019-04-13T22:44:46.986Z,13.27
2019-04-13T22:47:01.609Z,12.83
2019-04-13T22:49:28.439Z,14.00
2019-04-13T22:52:06.587Z,14.65
2019-04-13T22:54:36.979Z,13.50
2019-04-13T22:57:10.523Z,13.13
2019-04-13T22:59:38.033Z,12.27
2019-04-13T23:02:10.358Z,13.13
2019-04-13T23:04:38.334Z,12.20
2019-04-13T23:07:06.475Z,12.87
2019-04-13T23:09:34.517Z,11.63
2019-04-13T23:12:00.804Z,12.97
2019-04-13T23:14:28.833Z,11.73
2019-04-13T23:16:56.314Z,11.87
2019-04-13T23:19:24.094Z,12.65
2019-04-13T23:21:51.315Z,12.77
2019-04-13T23:24:19.169Z,10.70
2019-04-13T23:26:47.236Z,10.43
2019-04-13T23:29:14.928Z,10.30
2019-04-13T23:31:41.279Z,11.37
2019-04-13T23:34:09.295Z,11.33
2019-04-13T23:36:37.586Z,12.30
2019-04-13T23:39:04.642Z,11.47
2019-04-13T23:41:32.229Z,12.67
2019-04-13T23:44:00.514Z,11.17
2019-04-13T23:46:27.042Z,10.47
2019-04-13T23:48:54.799Z,10.97
2019-04-13T23:51:24.998Z,11.73
2019-04-13T23:53:52.080Z,11.75
2019-04-13T23:56:19.623Z,10.70
2019-04-13T23:58:53.725Z,12.10
